Time;durP1;ratioP1;P1;durP2;ratioP2;P2;SDS_P1;SDS_P2;PMS_P1;PMS_P2;Temp;Humidity;BMP_temperature;BMP_pressure;BME280_temperature;BME280_humidity;BME280_pressure;Samples;Min_cycle;Max_cycle;Signal;HPM_P1;HPM_P2
2023/09/12 00:00:50;;;;;;;25.00;21.33;;;18.40;99.90;;;18.06;100.00;97629.03;5046504;28;20865;-81
2023/09/12 00:03:21;;;;;;;24.43;22.13;;;18.30;99.90;;;18.19;100.00;97659.63;5047513;28;20456;-81
2023/09/12 00:05:53;;;;;;;23.53;21.43;;;18.30;99.90;;;18.19;100.00;97654.16;5047977;28;20715;-80
2023/09/12 00:08:21;;;;;;;23.17;20.67;;;18.30;99.90;;;18.07;100.00;97627.94;5047587;28;20553;-80
2023/09/12 00:10:59;;;;;;;22.70;20.30;;;18.30;99.90;;;18.18;100.00;97647.06;5046702;28;20446;-81
2023/09/12 00:13:26;;;;;;;23.07;20.70;;;18.40;99.90;;;18.02;100.00;97630.66;5050537;28;20530;-81
2023/09/12 00:15:53;;;;;;;23.30;21.03;;;18.40;99.90;;;18.17;100.00;97639.97;5043947;28;20455;-81
2023/09/12 00:18:21;;;;;;;23.27;21.20;;;18.40;99.90;;;18.22;100.00;97642.69;5047695;28;20454;-81
2023/09/12 00:20:49;;;;;;;24.03;21.53;;;18.30;99.90;;;18.20;100.00;97642.13;5048745;28;20451;-81
2023/09/12 00:23:17;;;;;;;23.10;20.73;;;18.30;99.90;;;18.15;100.00;97636.69;5047833;28;20545;-80
2023/09/12 00:25:45;;;;;;;22.73;20.43;;;18.20;99.90;;;18.14;100.00;97640.50;5047318;28;20476;-81
2023/09/12 00:28:12;;;;;;;23.33;20.93;;;18.20;99.90;;;17.69;99.79;97565.31;5044107;28;20464;-80
2023/09/12 00:30:40;;;;;;;20.83;18.67;;;18.20;99.90;;;18.07;100.00;97624.38;5043186;28;20863;-81
2023/09/12 00:33:07;;;;;;;21.27;19.03;;;18.10;99.90;;;18.03;99.69;97626.84;5046029;28;20451;-79
2023/09/12 00:35:35;;;;;;;21.17;19.30;;;18.10;99.90;;;18.02;100.00;97625.19;5020462;28;20462;-81
2023/09/12 00:38:03;;;;;;;22.40;20.40;;;18.00;99.90;;;17.87;100.00;97620.50;5045617;28;20555;-80
2023/09/12 00:40:30;;;;;;;22.33;20.13;;;18.00;99.90;;;17.93;100.00;97621.34;5043414;28;20454;-81
2023/09/12 00:43:00;;;;;;;21.00;19.00;;;18.00;99.90;;;17.89;100.00;97614.78;5042873;28;20556;-80
2023/09/12 00:45:27;;;;;;;22.50;20.33;;;18.00;99.90;;;17.88;100.00;97615.88;5044585;28;20461;-80
2023/09/12 00:47:55;;;;;;;22.63;20.40;;;17.90;99.90;;;17.69;100.00;97600.84;5045220;28;20552;-79
2023/09/12 00:50:25;;;;;;;21.83;19.60;;;17.90;99.90;;;17.78;100.00;97622.16;5030169;28;20522;-80
2023/09/12 00:52:53;;;;;;;24.30;21.97;;;17.80;99.90;;;17.75;100.00;97623.53;5045156;28;21032;-81
2023/09/12 00:55:21;;;;;;;24.73;22.60;;;17.80;99.90;;;17.66;100.00;97622.41;5047520;28;20454;-80
2023/09/12 00:57:49;;;;;;;23.47;21.13;;;17.70;99.90;;;17.65;100.00;97618.03;5046497;28;21354;-78
2023/09/12 01:00:18;;;;;;;24.73;22.23;;;17.70;99.90;;;17.60;100.00;97616.16;5047641;28;20445;-81
2023/09/12 01:02:49;;;;;;;25.73;23.13;;;17.70;99.90;;;17.51;100.00;97615.81;5045306;28;20621;-78
2023/09/12 01:05:17;;;;;;;25.13;22.80;;;17.70;99.90;;;17.49;100.00;97615.28;5047629;28;20450;-80
2023/09/12 01:07:45;;;;;;;25.83;23.43;;;17.60;99.90;;;17.49;100.00;97628.13;5038081;28;20478;-79
2023/09/12 01:10:13;;;;;;;26.20;23.70;;;17.60;99.90;;;17.50;100.00;97619.66;5047391;28;20455;-80
2023/09/12 01:12:41;;;;;;;26.53;23.70;;;17.60;99.90;;;17.40;100.00;97619.66;5046242;28;20452;-80
2023/09/12 01:15:13;;;;;;;26.10;23.40;;;17.50;99.90;;;17.27;100.00;97613.63;5045993;28;21191;-80
2023/09/12 01:17:43;;;;;;;25.70;23.37;;;17.40;99.90;;;17.25;100.00;97620.41;5042787;28;20557;-80
2023/09/12 01:20:16;;;;;;;26.50;23.77;;;17.40;99.90;;;16.86;100.00;97624.34;5044515;28;20501;-80
2023/09/12 01:23:02;;;;;;;25.30;22.87;;;17.30;99.90;;;16.80;100.00;97628.16;5045409;28;20528;-80
2023/09/12 01:26:02;;;;;;;26.97;24.00;;;17.20;99.90;;;16.61;100.00;97612.25;5061958;28;20483;-79
2023/09/12 01:28:34;;;;;;;24.67;22.20;;;17.10;99.90;;;16.55;100.00;97614.13;5058255;28;20484;-81
2023/09/12 01:31:03;;;;;;;25.13;22.50;;;17.00;99.90;;;16.70;100.00;97615.28;5048339;28;20461;-81
2023/09/12 01:33:30;;;;;;;26.43;23.93;;;17.00;99.90;;;16.53;100.00;97610.00;5060693;28;20522;-81
2023/09/12 01:35:59;;;;;;;25.73;23.40;;;17.00;99.90;;;16.80;100.00;97614.50;5042137;28;20526;-81
2023/09/12 01:38:27;;;;;;;27.57;24.63;;;17.00;99.90;;;16.79;100.00;97604.69;5042978;28;20451;-80
2023/09/12 01:40:56;;;;;;;26.83;24.03;;;17.00;99.90;;;16.77;100.00;97604.13;5050075;28;20478;-80
2023/09/12 01:43:26;;;;;;;26.50;24.00;;;17.00;99.90;;;16.80;100.00;97609.06;5046073;28;20463;-80
2023/09/12 01:45:58;;;;;;;26.37;23.27;;;17.10;99.90;;;16.77;100.00;97604.13;5046419;28;20452;-79
2023/09/12 01:48:34;;;;;;;26.30;23.57;;;17.10;99.90;;;16.76;100.00;97591.59;5048593;28;20548;-80
2023/09/12 01:51:02;;;;;;;27.03;24.13;;;17.10;99.90;;;16.87;100.00;97601.44;5044386;28;21300;-79
2023/09/12 01:53:30;;;;;;;25.47;23.03;;;17.10;99.90;;;16.77;100.00;97598.69;5047461;28;20613;-79
2023/09/12 01:55:59;;;;;;;27.40;24.70;;;17.00;99.90;;;16.78;100.00;97598.41;5045175;28;21191;-79
2023/09/12 01:58:27;;;;;;;26.97;24.30;;;17.00;99.90;;;16.71;100.00;97595.09;5045171;28;20512;-78
2023/09/12 02:00:56;;;;;;;27.17;24.57;;;17.00;99.90;;;16.66;100.00;97587.72;5048689;28;20461;-79
2023/09/12 02:03:24;;;;;;;27.27;24.37;;;17.00;99.90;;;16.67;100.00;97589.34;5046481;28;20898;-80
2023/09/12 02:05:51;;;;;;;25.37;22.97;;;17.00;99.90;;;16.70;100.00;97588.81;5048215;28;20463;-80
2023/09/12 02:08:18;;;;;;;27.57;24.87;;;17.00;99.90;;;16.76;100.00;97597.03;5045448;28;20469;-81
2023/09/12 02:10:46;;;;;;;26.13;23.60;;;17.00;99.90;;;16.50;100.00;97596.91;5047862;28;20550;-81
2023/09/12 02:13:13;;;;;;;27.40;24.60;;;17.00;99.90;;;16.12;100.00;97565.06;5049308;28;20806;-81
2023/09/12 02:15:40;;;;;;;26.13;23.73;;;16.90;99.90;;;16.42;100.00;97609.13;5052696;28;21146;-81
2023/09/12 02:18:09;;;;;;;26.60;24.10;;;16.90;99.90;;;16.40;100.00;97609.38;5066177;28;20514;-80
2023/09/12 02:20:41;;;;;;;26.20;23.00;;;16.90;99.90;;;16.38;100.00;97611.56;5064050;28;20466;-80
2023/09/12 02:23:09;;;;;;;26.73;23.10;;;16.90;99.90;;;16.52;100.00;97598.28;5070654;28;20457;-80
2023/09/12 02:25:36;;;;;;;27.23;24.53;;;16.90;99.90;;;16.52;100.00;97605.66;5071613;28;20470;-79
2023/09/12 02:28:05;;;;;;;32.57;25.20;;;16.80;99.90;;;16.47;100.00;97605.63;5073058;28;20514;-80
2023/09/12 02:30:32;;;;;;;26.30;23.70;;;16.90;99.90;;;16.45;100.00;97605.88;5074572;28;20439;-81
2023/09/12 02:32:59;;;;;;;25.90;23.30;;;16.80;99.90;;;16.19;100.00;97564.81;5066634;28;20447;-80
2023/09/12 02:35:30;;;;;;;26.70;24.20;;;16.80;99.90;;;16.53;100.00;97612.75;5058861;28;20464;-80
2023/09/12 02:37:57;;;;;;;27.70;25.07;;;16.80;99.90;;;16.51;100.00;97601.28;5046683;28;20789;-80
2023/09/12 02:40:25;;;;;;;25.77;23.30;;;16.80;99.90;;;16.34;100.00;97596.81;5050205;28;20453;-80
2023/09/12 02:42:53;;;;;;;26.03;23.70;;;16.80;99.90;;;16.38;100.00;97608.84;5050477;28;20487;-80
2023/09/12 02:45:20;;;;;;;25.97;23.37;;;16.70;99.90;;;16.29;100.00;97600.34;5050006;28;20460;-79
2023/09/12 02:47:48;;;;;;;24.83;22.40;;;16.70;99.90;;;16.25;100.00;97614.75;5052177;28;20475;-79
2023/09/12 02:50:15;;;;;;;24.57;22.27;;;16.60;99.90;;;16.14;100.00;97606.50;5042078;28;20453;-80
2023/09/12 02:52:44;;;;;;;26.07;23.67;;;16.50;99.90;;;16.19;100.00;97632.16;5048022;28;20447;-80
2023/09/12 02:55:12;;;;;;;29.90;25.07;;;16.40;99.90;;;16.12;100.00;97633.19;5050092;28;20458;-81
2023/09/12 02:57:39;;;;;;;25.13;22.73;;;16.40;99.90;;;16.09;100.00;97633.72;5051708;28;20459;-80
2023/09/12 03:00:09;;;;;;;26.63;24.03;;;16.30;99.90;;;16.06;100.00;97622.50;5042138;28;20462;-80
2023/09/12 03:02:37;;;;;;;26.30;23.90;;;16.30;99.90;;;16.01;100.00;97615.13;5044825;28;20482;-80
2023/09/12 03:05:05;;;;;;;25.63;22.93;;;16.40;99.90;;;16.14;100.00;97625.56;5050978;28;20470;-81
2023/09/12 03:07:32;;;;;;;25.60;23.20;;;16.40;99.90;;;16.19;100.00;97626.72;5047746;28;20477;-82
2023/09/12 03:10:02;;;;;;;25.97;23.23;;;16.40;99.90;;;16.23;100.00;97627.81;5049241;28;20533;-81
2023/09/12 03:12:29;;;;;;;27.87;24.73;;;16.50;99.90;;;16.16;100.00;97632.69;5049249;28;20447;-78
2023/09/12 03:14:59;;;;;;;27.70;24.87;;;16.40;99.90;;;15.98;100.00;97605.56;5044721;28;20437;-78
2023/09/12 03:17:29;;;;;;;25.13;22.83;;;16.40;99.90;;;16.16;100.00;97630.75;5038681;28;20485;-80
2023/09/12 03:19:57;;;;;;;25.40;22.70;;;16.40;99.90;;;15.88;100.00;97583.66;5041373;28;20460;-78
2023/09/12 03:22:25;;;;;;;24.37;21.87;;;16.40;99.90;;;16.19;100.00;97632.16;5041694;28;20453;-78
2023/09/12 03:24:52;;;;;;;25.47;22.70;;;16.40;99.90;;;16.09;100.00;97617.38;5037099;28;20494;-79
2023/09/12 03:27:21;;;;;;;24.30;22.10;;;16.40;99.90;;;16.07;100.00;97627.72;5048179;28;20517;-79
2023/09/12 03:29:48;;;;;;;24.10;21.80;;;16.30;99.90;;;16.13;100.00;97613.03;5045020;28;20460;-80
2023/09/12 03:32:16;;;;;;;25.43;23.03;;;16.40;99.90;;;16.16;100.00;97616.34;5046656;28;20459;-79
2023/09/12 03:34:44;;;;;;;26.23;23.50;;;16.40;99.90;;;16.18;100.00;97619.63;5045506;28;20506;-79
2023/09/12 03:37:12;;;;;;;24.80;22.20;;;16.40;99.90;;;16.13;100.00;97610.28;5045875;28;20464;-81
2023/09/12 03:39:39;;;;;;;26.67;24.10;;;16.30;99.90;;;16.08;100.00;97612.19;5043261;28;20467;-81
2023/09/12 03:42:07;;;;;;;27.10;24.20;;;16.30;99.90;;;15.95;100.00;97606.09;5036608;28;20595;-82
2023/09/12 03:44:36;;;;;;;26.40;24.00;;;16.30;99.90;;;15.90;100.00;97581.53;5044064;28;20814;-79
2023/09/12 03:47:04;;;;;;;25.70;23.20;;;16.30;99.90;;;16.06;100.00;97617.06;5045393;28;20497;-80
2023/09/12 03:49:32;;;;;;;26.47;23.87;;;16.30;99.90;;;15.82;100.00;97595.59;5063012;28;20558;-79
2023/09/12 03:51:59;;;;;;;25.20;22.80;;;16.30;99.90;;;15.93;100.00;97608.28;5050098;28;20451;-78
2023/09/12 03:54:26;;;;;;;27.23;24.53;;;16.30;99.90;;;15.93;100.00;97610.16;5043060;28;20454;-78
2023/09/12 03:56:54;;;;;;;26.80;23.00;;;16.30;99.90;;;15.98;100.00;97615.63;5042509;28;20455;-78
2023/09/12 03:59:21;;;;;;;23.47;21.07;;;16.20;99.90;;;15.86;100.00;97607.63;5046948;28;20471;-78
2023/09/12 04:01:51;;;;;;;28.27;23.60;;;16.20;99.90;;;15.86;100.00;97613.91;5043456;28;20476;-78
2023/09/12 04:04:18;;;;;;;27.40;22.83;;;16.20;99.90;;;15.80;100.00;97609.47;5041634;28;21072;-79
2023/09/12 04:06:46;;;;;;;27.00;24.43;;;16.10;99.90;;;15.81;100.00;97611.13;5046985;28;20513;-80
2023/09/12 04:09:14;;;;;;;28.43;25.63;;;16.10;99.90;;;15.83;100.00;97611.66;5054801;28;20809;-79
2023/09/12 04:11:41;;;;;;;26.20;23.40;;;16.10;99.90;;;15.79;100.00;97599.66;5047714;28;20512;-80
2023/09/12 04:14:09;;;;;;;30.70;24.30;;;16.10;99.90;;;15.85;100.00;97612.25;5049393;28;20462;-81
2023/09/12 04:16:37;;;;;;;24.53;22.10;;;16.10;99.90;;;15.70;100.00;97598.50;5043571;28;20526;-82
2023/09/12 04:19:06;;;;;;;26.57;23.67;;;16.00;99.90;;;15.65;100.00;97591.13;5047911;28;20452;-82
2023/09/12 04:21:33;;;;;;;31.03;25.13;;;16.00;99.90;;;15.68;100.00;97597.94;5045527;28;20527;-80
2023/09/12 04:24:00;;;;;;;26.07;23.47;;;16.00;99.90;;;15.84;100.00;97609.78;5049368;28;20454;-80
2023/09/12 04:26:30;;;;;;;26.40;23.10;;;16.10;99.90;;;15.81;100.00;97608.38;5045558;28;20454;-81
2023/09/12 04:28:57;;;;;;;25.00;22.40;;;16.10;99.90;;;15.76;100.00;97619.25;5048643;28;21005;-81
2023/09/12 04:31:25;;;;;;;27.27;22.90;;;16.00;99.90;;;15.87;100.00;97614.72;5060245;28;20488;-79
2023/09/12 04:33:53;;;;;;;25.10;22.60;;;16.10;99.90;;;15.67;100.00;97616.19;5044948;28;20508;-81
2023/09/12 04:36:22;;;;;;;31.00;24.77;;;16.00;99.90;;;15.82;100.00;97612.75;5047320;28;20465;-80
2023/09/12 04:38:50;;;;;;;26.30;23.60;;;16.10;99.90;;;15.85;100.00;97617.72;5046424;28;20469;-81
2023/09/12 04:41:17;;;;;;;25.00;22.60;;;16.20;99.90;;;15.76;100.00;97621.13;5038472;28;20539;-79
2023/09/12 04:43:45;;;;;;;23.70;21.30;;;16.10;99.90;;;15.57;100.00;97595.13;5040480;28;20446;-79
2023/09/12 04:46:13;;;;;;;23.90;21.50;;;16.10;99.90;;;15.62;100.00;97601.69;5047264;28;20540;-80
2023/09/12 04:48:41;;;;;;;22.93;20.80;;;16.10;99.90;;;15.82;100.00;97620.94;5046201;28;20561;-79
2023/09/12 04:51:08;;;;;;;23.30;20.93;;;16.10;99.90;;;15.67;100.00;97609.91;5046403;28;20458;-80
2023/09/12 04:53:36;;;;;;;24.87;22.47;;;16.10;99.90;;;15.69;100.00;97613.19;5045417;28;20461;-81
2023/09/12 04:56:06;;;;;;;24.30;21.80;;;16.00;99.90;;;15.71;100.00;97619.22;5047179;28;20924;-79
2023/09/12 04:58:33;;;;;;;24.80;22.33;;;16.00;99.90;;;15.66;100.00;97602.81;5047571;28;20453;-80
2023/09/12 05:01:02;;;;;;;23.40;20.77;;;16.00;99.90;;;15.74;100.00;97626.88;5048168;28;20922;-81
2023/09/12 05:03:31;;;;;;;23.83;21.53;;;16.00;99.90;;;15.84;100.00;97618.75;5048612;28;20467;-80
2023/09/12 05:05:58;;;;;;;24.50;22.00;;;16.10;99.90;;;15.80;100.00;97604.03;5047697;28;20449;-79
2023/09/12 05:08:27;;;;;;;25.13;21.93;;;16.20;99.90;;;15.92;100.00;97612.06;5049230;28;20567;-84
2023/09/12 05:10:55;;;;;;;25.43;21.17;;;16.20;99.90;;;15.91;100.00;97576.91;5056300;28;20866;-84
2023/09/12 05:13:22;;;;;;;22.97;20.60;;;16.40;99.90;;;16.14;100.00;97592.06;5051326;28;20482;-84
2023/09/12 05:15:51;;;;;;;26.47;21.43;;;16.50;99.90;;;16.33;100.00;97606.09;5055037;28;20445;-80
2023/09/12 05:18:18;;;;;;;21.83;19.60;;;16.60;99.90;;;16.19;99.73;97562.09;5032464;28;20833;-86
2023/09/12 05:20:46;;;;;;;24.20;20.50;;;16.80;99.30;;;16.67;97.82;97611.19;5054235;28;20533;-85
2023/09/12 05:23:13;;;;;;;22.23;20.13;;;16.90;98.00;;;16.81;96.96;97588.88;5053930;28;20846;-83
2023/09/12 05:25:40;;;;;;;21.77;19.40;;;17.10;97.90;;;16.84;94.46;97611.00;5063575;28;20458;-82
2023/09/12 05:28:10;;;;;;;22.83;20.47;;;17.10;95.90;;;16.55;94.24;97565.03;5039601;28;20532;-79
2023/09/12 05:30:37;;;;;;;19.97;17.70;;;17.10;95.80;;;16.79;94.14;97621.84;5050501;28;20453;-78
2023/09/12 05:33:05;;;;;;;22.40;19.20;;;17.10;95.30;;;16.61;95.27;97614.13;5044944;28;20474;-73
2023/09/12 05:35:33;;;;;;;25.47;19.10;;;17.00;95.50;;;16.59;94.87;97617.13;5051767;28;20986;-75
2023/09/12 05:38:00;;;;;;;25.27;19.67;;;17.00;95.40;;;16.51;95.07;97606.72;5044807;28;21266;-78
2023/09/12 05:40:27;;;;;;;22.03;19.73;;;17.10;95.60;;;16.59;95.67;97630.75;5039796;28;20459;-73
2023/09/12 05:42:54;;;;;;;21.80;17.93;;;17.00;95.40;;;16.63;95.52;97629.16;5046069;28;20449;-74
2023/09/12 05:45:23;;;;;;;21.27;19.10;;;17.10;95.40;;;16.65;94.83;97629.72;5044802;28;20566;-77
2023/09/12 05:47:51;;;;;;;19.17;17.20;;;17.10;95.10;;;16.53;94.65;97618.19;5044849;28;20486;-77
2023/09/12 05:50:19;;;;;;;22.03;17.83;;;17.00;94.90;;;16.69;93.79;97625.38;5037580;28;20442;-78
2023/09/12 05:52:46;;;;;;;21.10;18.93;;;17.00;94.90;;;16.80;93.06;97626.22;5043184;28;20457;-78
2023/09/12 05:55:14;;;;;;;19.97;18.07;;;17.10;94.80;;;16.65;93.99;97624.25;5039821;28;20499;-77
2023/09/12 05:57:41;;;;;;;20.80;18.77;;;17.00;94.80;;;16.77;93.61;97626.75;5039256;28;20943;-78
2023/09/12 06:00:11;;;;;;;21.67;19.50;;;17.10;94.70;;;16.83;93.17;97623.00;5045361;28;20877;-79
2023/09/12 06:02:40;;;;;;;20.90;18.90;;;17.20;94.70;;;16.85;93.35;97629.00;5036758;28;20454;-77
2023/09/12 06:05:08;;;;;;;20.07;18.07;;;17.20;94.80;;;17.01;93.16;97631.00;5041685;28;20677;-76
2023/09/12 06:07:38;;;;;;;23.70;18.53;;;17.30;94.90;;;17.34;91.06;97640.66;5042218;28;20480;-79
2023/09/12 06:10:06;;;;;;;21.90;19.60;;;17.40;94.40;;;17.26;90.34;97636.53;5043795;28;20545;-77
2023/09/12 06:12:36;;;;;;;21.33;19.33;;;17.50;93.70;;;17.28;90.44;97642.56;5043693;28;20946;-78
2023/09/12 06:15:04;;;;;;;19.07;17.27;;;17.60;93.60;;;17.26;90.00;97628.34;5038307;28;21000;-78
2023/09/12 06:17:31;;;;;;;25.40;18.63;;;17.70;93.50;;;17.49;88.97;97639.06;5041051;28;20549;-79
2023/09/12 06:20:03;;;;;;;24.33;19.67;;;17.80;93.20;;;17.65;88.71;97629.78;5040606;28;20467;-77
2023/09/12 06:22:30;;;;;;;21.60;19.33;;;17.90;93.20;;;17.61;88.00;97627.88;5040185;28;20459;-79
2023/09/12 06:24:58;;;;;;;20.47;18.30;;;17.90;92.80;;;17.80;87.41;97631.72;5030021;28;20806;-81
2023/09/12 06:27:25;;;;;;;20.97;19.00;;;18.00;92.80;;;17.74;87.74;97627.34;5040685;28;20456;-80
2023/09/12 06:29:52;;;;;;;20.47;18.30;;;18.10;92.70;;;17.93;86.99;97637.72;5033604;28;20536;-80
2023/09/12 06:32:20;;;;;;;20.67;18.57;;;18.20;92.60;;;17.90;86.89;97636.38;5038944;28;20455;-79
2023/09/12 06:34:47;;;;;;;20.40;17.63;;;18.30;92.40;;;18.18;85.99;97626.00;5043911;28;20468;-79
2023/09/12 06:37:16;;;;;;;19.87;17.97;;;18.30;92.40;;;18.12;84.51;97616.16;5038508;28;20865;-78
2023/09/12 06:39:46;;;;;;;20.67;17.50;;;18.60;91.90;;;18.36;83.70;97632.00;5041401;28;20460;-79
2023/09/12 06:42:14;;;;;;;20.23;18.00;;;18.70;91.80;;;18.51;82.72;97625.69;5046778;28;20452;-80
2023/09/12 06:44:41;;;;;;;18.97;17.17;;;18.80;91.50;;;18.55;82.26;97624.03;5046089;28;20458;-81
2023/09/12 06:47:10;;;;;;;19.60;17.53;;;18.90;91.30;;;18.40;82.72;97625.69;5056425;28;20945;-80
2023/09/12 06:49:37;;;;;;;18.80;16.97;;;18.90;91.20;;;18.51;81.48;97617.47;5048815;28;21833;-79
2023/09/12 06:52:05;;;;;;;20.37;17.43;;;18.90;91.00;;;18.77;80.37;97631.91;5047178;28;20460;-80
2023/09/12 06:54:36;;;;;;;22.27;17.63;;;19.00;90.90;;;18.86;80.29;97623.13;5043456;28;20807;-81
2023/09/12 06:57:03;;;;;;;20.67;18.17;;;19.10;90.90;;;18.83;80.92;97624.50;5044812;28;20477;-76
2023/09/12 06:59:31;;;;;;;19.00;17.20;;;19.20;90.80;;;18.88;79.93;97627.22;5026860;28;20456;-75
2023/09/12 07:01:58;;;;;;;17.67;15.70;;;19.30;90.70;;;18.63;79.96;97592.53;5031014;28;20451;-76
2023/09/12 07:04:27;;;;;;;19.80;17.37;;;19.30;90.60;;;18.89;79.80;97634.34;5051349;28;20457;-78
2023/09/12 07:06:54;;;;;;;21.07;17.03;;;19.30;90.50;;;19.01;80.14;97631.31;5048095;28;20455;-79
2023/09/12 07:09:22;;;;;;;20.40;18.20;;;19.30;90.70;;;19.13;78.86;97628.22;5048692;28;20483;-79
2023/09/12 07:11:50;;;;;;;20.17;18.10;;;19.50;90.60;;;19.29;78.60;97614.47;5043972;28;20532;-80
2023/09/12 07:14:17;;;;;;;19.70;17.57;;;19.60;90.40;;;19.39;77.24;97617.16;5041536;28;20915;-77
2023/09/12 07:16:45;;;;;;;18.83;17.00;;;19.70;90.30;;;19.34;77.61;97622.66;5037347;28;20803;-78
2023/09/12 07:19:12;;;;;;;22.07;18.00;;;19.70;90.20;;;19.53;77.30;97637.34;5045905;28;20539;-79
2023/09/12 07:21:39;;;;;;;18.90;17.00;;;19.80;90.20;;;19.85;76.02;97637.13;5047227;28;20468;-78
2023/09/12 07:24:08;;;;;;;21.33;16.47;;;20.00;90.10;;;19.87;75.87;97623.94;5042123;28;20499;-79
2023/09/12 07:26:35;;;;;;;16.97;15.23;;;20.10;89.90;;;19.97;74.87;97645.84;5041780;28;20466;-77
2023/09/12 07:29:05;;;;;;;19.20;17.27;;;20.30;89.50;;;20.01;75.11;97635.94;5038387;28;20962;-76
2023/09/12 07:31:32;;;;;;;19.17;16.73;;;20.30;89.40;;;20.02;75.30;97637.56;5039979;28;20462;-77
2023/09/12 07:33:59;;;;;;;18.17;15.90;;;20.30;89.50;;;20.34;74.06;97643.63;5044124;28;20519;-77
2023/09/12 07:36:26;;;;;;;19.00;16.33;;;20.40;89.20;;;20.18;74.83;97641.00;5044441;28;20457;-77
2023/09/12 07:38:54;;;;;;;19.87;16.80;;;20.50;89.10;;;20.24;74.51;97639.84;5046775;28;20548;-77
2023/09/12 07:41:22;;;;;;;19.10;16.83;;;20.50;88.90;;;20.24;74.47;97641.75;5040784;28;20457;-77
2023/09/12 07:43:49;;;;;;;17.33;15.53;;;20.60;89.10;;;20.52;73.71;97634.66;5042352;28;20939;-76
2023/09/12 07:46:18;;;;;;;19.63;16.37;;;20.70;89.00;;;20.76;72.71;97617.34;5047207;28;20556;-79
2023/09/12 07:48:45;;;;;;;17.20;15.50;;;21.00;89.00;;;20.99;71.86;97631.41;5045665;28;20476;-78
2023/09/12 07:51:14;;;;;;;20.63;16.50;;;21.10;88.30;;;21.30;70.32;97635.69;5039491;28;20991;-77
2023/09/12 07:53:42;;;;;;;18.17;16.30;;;21.40;88.00;;;21.50;69.78;97640.91;5046497;28;20459;-78
2023/09/12 07:56:11;;;;;;;18.17;16.47;;;21.50;87.60;;;21.66;68.46;97635.22;5047974;28;20446;-79
2023/09/12 07:58:38;;;;;;;16.43;14.90;;;21.70;86.90;;;21.92;67.64;97649.38;5039378;28;20657;-78
2023/09/12 08:01:09;;;;;;;16.13;14.63;;;21.90;86.70;;;22.00;67.66;97642.38;5037690;28;20457;-78
2023/09/12 08:03:39;;;;;;;19.30;15.53;;;22.10;86.50;;;22.14;67.50;97642.44;5037295;28;20978;-78
2023/09/12 08:06:06;;;;;;;17.53;15.93;;;22.30;86.30;;;22.17;66.21;97641.00;5043887;28;20463;-78
2023/09/12 08:08:35;;;;;;;16.03;14.63;;;22.40;85.50;;;21.85;67.65;97650.88;5044555;28;20482;-79
2023/09/12 08:11:02;;;;;;;17.53;15.70;;;22.20;85.50;;;21.89;67.43;97627.16;5042728;28;20932;-79
2023/09/12 08:13:31;;;;;;;18.03;14.83;;;22.20;85.80;;;22.11;67.13;97647.72;5039741;28;20457;-79
2023/09/12 08:15:59;;;;;;;15.47;13.97;;;22.30;85.60;;;22.27;66.97;97646.34;5037717;28;20463;-77
2023/09/12 08:18:30;;;;;;;16.23;14.70;;;22.40;85.60;;;22.64;65.71;97644.59;5038809;28;20566;-78
2023/09/12 08:21:00;;;;;;;17.80;15.43;;;22.70;85.40;;;22.58;65.30;97634.81;5041768;28;20492;-79
2023/09/12 08:23:27;;;;;;;17.43;15.73;;;22.90;84.70;;;22.53;65.39;97637.69;5043265;28;21221;-79
2023/09/12 08:25:56;;;;;;;17.43;15.70;;;22.90;84.50;;;22.68;65.41;97628.31;5050195;28;20531;-76
2023/09/12 08:28:23;;;;;;;17.23;15.43;;;22.90;84.60;;;22.86;64.95;97626.59;5048978;28;20512;-77
2023/09/12 08:30:51;;;;;;;16.27;14.57;;;23.00;84.60;;;23.05;64.09;97631.16;5042422;28;20457;-78
2023/09/12 08:33:18;;;;;;;17.23;15.30;;;23.20;84.10;;;22.82;64.37;97630.25;5036690;28;20539;-78
2023/09/12 08:35:46;;;;;;;18.23;14.37;;;23.10;83.80;;;22.83;63.28;97623.63;5038361;28;20847;-77
2023/09/12 08:38:15;;;;;;;18.80;15.10;;;23.20;83.20;;;23.26;63.04;97630.72;5043114;28;20447;-78
2023/09/12 08:40:49;;;;;;;14.70;13.30;;;23.30;83.40;;;23.25;63.35;97629.09;5045841;28;20459;-77
2023/09/12 08:43:16;;;;;;;15.37;13.87;;;23.50;83.20;;;23.12;62.61;97609.50;5044276;28;20870;-78
2023/09/12 08:45:44;;;;;;;15.53;14.03;;;23.50;82.80;;;23.56;62.48;97628.44;5043550;28;20896;-78
2023/09/12 08:48:12;;;;;;;15.20;13.80;;;23.60;82.90;;;23.76;61.49;97636.25;5044600;28;20463;-78
2023/09/12 08:50:41;;;;;;;16.73;15.03;;;23.80;82.40;;;23.84;61.00;97633.88;5050059;28;20488;-78
2023/09/12 08:53:08;;;;;;;15.00;13.47;;;24.00;82.20;;;23.92;61.00;97633.13;5042880;28;20475;-77
2023/09/12 08:55:37;;;;;;;19.90;13.50;;;24.10;82.00;;;24.11;60.23;97634.91;5041674;28;20935;-77
2023/09/12 08:58:06;;;;;;;14.50;13.10;;;24.20;81.70;;;23.90;59.58;97566.44;5042385;28;20464;-77
2023/09/12 09:00:33;;;;;;;15.10;12.67;;;24.30;81.20;;;24.17;59.39;97628.13;5044264;28;20552;-76
2023/09/12 09:03:01;;;;;;;14.50;12.93;;;24.30;80.70;;;24.32;58.91;97616.69;5042798;28;20468;-77
2023/09/12 09:05:30;;;;;;;16.10;13.03;;;24.40;80.70;;;24.58;58.23;97624.31;5040010;28;20540;-76
2023/09/12 09:08:01;;;;;;;15.07;12.80;;;24.60;80.80;;;24.42;57.46;97565.94;5044501;28;20458;-77
2023/09/12 09:10:32;;;;;;;17.30;13.10;;;24.70;80.00;;;24.71;57.38;97613.47;5047614;28;20460;-79
2023/09/12 09:13:01;;;;;;;17.63;12.63;;;24.90;79.40;;;24.65;56.97;97612.00;5035813;28;20472;-78
2023/09/12 09:15:31;;;;;;;13.93;12.50;;;24.90;78.90;;;24.70;57.29;97618.16;5034102;28;20942;-78
2023/09/12 09:18:00;;;;;;;14.50;12.97;;;24.90;79.00;;;24.90;57.04;97618.78;5068584;28;20438;-79
2023/09/12 09:20:31;;;;;;;13.83;12.40;;;25.00;79.10;;;25.21;55.51;97617.06;5063895;28;20492;-78
2023/09/12 09:23:00;;;;;;;13.07;11.70;;;25.20;77.90;;;25.51;54.60;97614.53;5062357;28;20479;-78
2023/09/12 09:25:29;;;;;;;13.97;12.23;;;25.40;77.40;;;25.77;53.26;97624.81;5062792;28;20958;-80
2023/09/12 09:27:56;;;;;;;16.27;11.50;;;25.60;76.60;;;25.77;52.59;97616.50;5061486;28;20469;-78
2023/09/12 09:30:45;;;;;;;15.80;12.70;;;25.80;75.50;;;25.92;52.95;97624.31;5063236;28;20470;-76
2023/09/12 09:33:13;;;;;;;12.33;11.03;;;25.80;75.60;;;25.89;52.71;97608.38;5061678;28;20453;-79
2023/09/12 09:35:42;;;;;;;13.23;11.83;;;25.90;75.10;;;25.90;52.58;97610.00;5064772;28;20442;-77
2023/09/12 09:38:16;;;;;;;14.13;12.83;;;26.00;74.70;;;26.06;52.70;97606.72;5060587;28;20513;-77
2023/09/12 09:40:43;;;;;;;14.67;11.30;;;26.10;74.80;;;26.29;51.89;97605.38;5066807;28;20522;-80
2023/09/12 09:43:11;;;;;;;14.10;12.03;;;26.30;74.40;;;26.38;52.28;97602.56;5052853;28;20456;-77
2023/09/12 09:45:46;;;;;;;13.10;11.80;;;26.40;74.40;;;26.51;51.84;97600.75;5043403;28;20491;-78
2023/09/12 09:48:20;;;;;;;12.80;11.70;;;26.50;74.10;;;26.54;51.40;97608.41;5044974;28;21156;-77
2023/09/12 09:50:47;;;;;;;14.27;11.47;;;26.60;73.60;;;26.65;50.01;97602.50;5046875;28;20542;-77
2023/09/12 09:53:14;;;;;;;13.37;12.17;;;26.70;72.80;;;26.67;50.51;97594.69;5049747;28;20952;-77
2023/09/12 09:55:43;;;;;;;12.90;11.70;;;26.70;72.50;;;26.61;50.67;97601.53;5047696;28;20460;-77
2023/09/12 09:58:15;;;;;;;12.60;11.50;;;26.70;72.30;;;26.54;49.11;97594.56;5046527;28;20451;-76
2023/09/12 10:00:48;;;;;;;11.43;10.27;;;26.70;70.70;;;26.80;48.10;97590.03;5041023;28;21809;-77
2023/09/12 10:03:23;;;;;;;11.73;10.63;;;26.70;70.10;;;26.77;48.49;97582.41;5044569;28;20454;-77
2023/09/12 10:05:54;;;;;;;11.53;10.63;;;26.80;70.00;;;27.05;49.17;97585.53;5040161;28;20454;-78
2023/09/12 10:08:24;;;;;;;14.67;11.13;;;27.00;70.80;;;27.20;48.55;97597.19;5046407;28;20446;-78